createdAt,value
2018-11-27T00:00:50.189Z,79.80
2018-11-27T00:15:52.564Z,80.63
2018-11-27T00:30:50.931Z,82.12
2018-11-27T00:45:52.808Z,81.97
2018-11-27T01:00:51.215Z,81.09
2018-11-27T01:15:52.663Z,81.08
2018-11-27T01:30:52.664Z,81.59
2018-11-27T01:45:54.004Z,82.32
2018-11-27T02:00:50.957Z,82.06
2018-11-27T02:15:52.843Z,82.30
2018-11-27T02:30:50.767Z,83.45
2018-11-27T02:45:53.212Z,83.62
2018-11-27T03:00:53.139Z,83.46
2018-11-27T03:15:51.554Z,83.63
2018-11-27T03:30:51.013Z,82.77
2018-11-27T03:45:51.354Z,83.13
2018-11-27T04:00:53.305Z,83.10
2018-11-27T04:15:52.846Z,83.15
2018-11-27T04:30:51.396Z,82.95
2018-11-27T04:45:50.681Z,82.65
2018-11-27T05:00:51.599Z,83.03
2018-11-27T05:15:52.591Z,82.68
2018-11-27T05:30:50.374Z,83.09
2018-11-27T05:45:51.311Z,82.77
2018-11-27T06:00:50.860Z,83.77
2018-11-27T06:15:50.665Z,83.66
2018-11-27T06:30:50.935Z,84.62
2018-11-27T06:45:53.040Z,84.88
2018-11-27T07:00:51.502Z,84.00
2018-11-27T07:15:54.031Z,83.48
2018-11-27T07:30:52.917Z,83.85
2018-11-27T07:45:55.183Z,84.09
2018-11-27T08:00:53.208Z,83.97
2018-11-27T08:15:51.106Z,82.99
2018-11-27T08:30:51.118Z,82.22
2018-11-27T08:45:50.380Z,82.51
2018-11-27T09:00:50.201Z,82.08
2018-11-27T09:15:51.288Z,84.00
2018-11-27T09:30:51.234Z,84.57
2018-11-27T09:45:50.746Z,84.39
2018-11-27T10:00:50.519Z,84.18
2018-11-27T10:15:50.901Z,83.70
2018-11-27T10:30:50.452Z,82.75
2018-11-27T10:45:49.790Z,81.40
2018-11-27T11:00:55.459Z,80.88
2018-11-27T11:15:50.194Z,81.03
2018-11-27T11:30:50.637Z,79.75
2018-11-27T11:45:51.991Z,80.22
2018-11-27T12:00:52.147Z,79.80
2018-11-27T12:15:51.840Z,80.88
2018-11-27T12:30:50.749Z,80.82
2018-11-27T12:45:51.195Z,82.29
2018-11-27T13:00:51.204Z,84.54
2018-11-27T13:15:51.568Z,85.39
2018-11-27T13:30:55.392Z,84.96
2018-11-27T13:45:50.732Z,85.64
2018-11-27T14:00:52.749Z,87.75
2018-11-27T14:15:51.323Z,89.51
2018-11-27T14:30:51.348Z,90.90
2018-11-27T14:45:52.606Z,90.38
2018-11-27T15:00:50.539Z,90.11
2018-11-27T15:15:50.480Z,89.49
2018-11-27T15:30:50.469Z,91.06
2018-11-27T15:45:50.840Z,91.78
2018-11-27T16:00:52.912Z,92.85
2018-11-27T16:15:52.878Z,93.68
2018-11-27T16:30:53.458Z,92.46
2018-11-27T17:00:54.141Z,95.07
2018-11-27T17:45:52.661Z,95.59
2018-11-27T18:00:51.440Z,95.47
2018-11-27T18:15:51.234Z,95.72
2018-11-27T18:30:54.346Z,96.15
2018-11-27T18:45:50.628Z,95.90
2018-11-27T19:00:51.441Z,95.28
2018-11-27T19:15:52.537Z,94.39
2018-11-27T19:30:52.741Z,95.05
2018-11-27T20:00:56.288Z,93.53
2018-11-27T20:30:55.492Z,93.37
2018-11-27T20:45:57.184Z,93.61
2018-11-27T21:30:54.296Z,88.06
2018-11-27T21:45:59.250Z,86.57
2018-11-27T22:00:53.529Z,85.88
2018-11-27T22:15:57.045Z,84.54
2018-11-27T22:30:52.839Z,83.02
2018-11-27T22:45:50.683Z,81.80
2018-11-27T23:00:52.595Z,82.86
2018-11-27T23:15:51.373Z,82.10
2018-11-27T23:30:53.224Z,80.51
2018-11-27T23:45:51.631Z,81.07
